sensor_id;sensor_type;location;lat;lon;timestamp;pressure;altitude;pressure_sealevel;temperature;humidity
69689;BME280;56932;38.402;-96.176;2022-10-23T00:00:19;96083.59;;;23.97;27.82
69689;BME280;56932;38.402;-96.176;2022-10-23T00:02:44;96080.23;;;24.20;28.42
69689;BME280;56932;38.402;-96.176;2022-10-23T00:05:09;96081.99;;;24.46;28.29
69689;BME280;56932;38.402;-96.176;2022-10-23T00:07:34;96083.25;;;23.69;29.05
69689;BME280;56932;38.402;-96.176;2022-10-23T00:10:00;96088.53;;;24.12;28.74
69689;BME280;56932;38.402;-96.176;2022-10-23T00:12:25;96091.45;;;23.82;29.11
69689;BME280;56932;38.402;-96.176;2022-10-23T00:14:50;96095.92;;;24.88;27.86
69689;BME280;56932;38.402;-96.176;2022-10-23T00:17:16;96098.11;;;24.06;28.58
69689;BME280;56932;38.402;-96.176;2022-10-23T00:19:41;96097.95;;;24.01;28.81
69689;BME280;56932;38.402;-96.176;2022-10-23T00:22:06;96100.75;;;24.16;29.03
69689;BME280;56932;38.402;-96.176;2022-10-23T00:24:32;96105.57;;;25.00;27.90
69689;BME280;56932;38.402;-96.176;2022-10-23T00:26:57;96107.78;;;23.84;29.38
69689;BME280;56932;38.402;-96.176;2022-10-23T00:29:23;96107.52;;;23.28;30.04
69689;BME280;56932;38.402;-96.176;2022-10-23T00:31:48;96111.04;;;23.50;29.82
69689;BME280;56932;38.402;-96.176;2022-10-23T00:34:14;96114.47;;;23.70;29.84
69689;BME280;56932;38.402;-96.176;2022-10-23T00:36:39;96117.67;;;23.92;29.62
69689;BME280;56932;38.402;-96.176;2022-10-23T00:39:05;96122.04;;;23.97;29.57
69689;BME280;56932;38.402;-96.176;2022-10-23T00:41:30;96121.66;;;23.84;29.48
69689;BME280;56932;38.402;-96.176;2022-10-23T00:44:00;96123.54;;;24.25;28.69
69689;BME280;56932;38.402;-96.176;2022-10-23T00:46:21;96120.30;;;23.69;28.98
69689;BME280;56932;38.402;-96.176;2022-10-23T00:48:46;96123.74;;;23.58;29.67
69689;BME280;56932;38.402;-96.176;2022-10-23T00:51:12;96123.65;;;23.84;29.29
69689;BME280;56932;38.402;-96.176;2022-10-23T00:53:37;96124.06;;;23.97;29.14
69689;BME280;56932;38.402;-96.176;2022-10-23T00:56:03;96128.27;;;24.45;28.63
69689;BME280;56932;38.402;-96.176;2022-10-23T00:58:28;96125.41;;;24.34;28.40
69689;BME280;56932;38.402;-96.176;2022-10-23T01:00:55;96125.54;;;24.31;28.68
69689;BME280;56932;38.402;-96.176;2022-10-23T01:03:21;96119.88;;;23.27;29.32
69689;BME280;56932;38.402;-96.176;2022-10-23T01:05:48;96124.37;;;23.77;29.36
69689;BME280;56932;38.402;-96.176;2022-10-23T01:08:17;96131.71;;;24.78;28.03
69689;BME280;56932;38.402;-96.176;2022-10-23T01:10:38;96133.16;;;24.54;28.87
69689;BME280;56932;38.402;-96.176;2022-10-23T01:13:07;96135.85;;;24.54;28.64
69689;BME280;56932;38.402;-96.176;2022-10-23T01:15:32;96131.73;;;23.80;29.51
69689;BME280;56932;38.402;-96.176;2022-10-23T01:17:55;96130.52;;;23.44;30.00
69689;BME280;56932;38.402;-96.176;2022-10-23T01:20:29;96132.64;;;24.15;29.10
69689;BME280;56932;38.402;-96.176;2022-10-23T01:25:17;96137.57;;;24.10;30.23
69689;BME280;56932;38.402;-96.176;2022-10-23T01:27:36;96140.99;;;24.36;29.80
69689;BME280;56932;38.402;-96.176;2022-10-23T01:30:04;96143.43;;;24.10;30.08
69689;BME280;56932;38.402;-96.176;2022-10-23T01:32:32;96148.17;;;24.32;29.56
69689;BME280;56932;38.402;-96.176;2022-10-23T01:34:54;96147.05;;;23.92;30.32
69689;BME280;56932;38.402;-96.176;2022-10-23T01:37:22;96147.73;;;24.05;30.08
69689;BME280;56932;38.402;-96.176;2022-10-23T01:39:46;96147.57;;;24.32;30.15
69689;BME280;56932;38.402;-96.176;2022-10-23T01:42:10;96147.63;;;24.41;30.40
69689;BME280;56932;38.402;-96.176;2022-10-23T01:44:36;96153.47;;;24.00;30.84
69689;BME280;56932;38.402;-96.176;2022-10-23T01:46:57;96156.06;;;24.46;30.26
69689;BME280;56932;38.402;-96.176;2022-10-23T01:49:23;96150.92;;;23.74;31.17
69689;BME280;56932;38.402;-96.176;2022-10-23T01:51:51;96158.64;;;24.23;30.56
69689;BME280;56932;38.402;-96.176;2022-10-23T01:54:14;96151.46;;;23.42;31.46
69689;BME280;56932;38.402;-96.176;2022-10-23T01:56:42;96153.14;;;23.78;31.04
69689;BME280;56932;38.402;-96.176;2022-10-23T01:59:09;96156.69;;;25.31;29.35
69689;BME280;56932;38.402;-96.176;2022-10-23T02:01:32;96159.57;;;24.87;29.85
69689;BME280;56932;38.402;-96.176;2022-10-23T02:03:57;96159.24;;;24.88;29.88
69689;BME280;56932;38.402;-96.176;2022-10-23T02:06:21;96156.51;;;23.46;30.93
69689;BME280;56932;38.402;-96.176;2022-10-23T02:08:46;96158.69;;;23.65;31.29
69689;BME280;56932;38.402;-96.176;2022-10-23T02:11:14;96158.64;;;23.68;31.32
69689;BME280;56932;38.402;-96.176;2022-10-23T02:13:43;96157.03;;;24.28;30.42
69689;BME280;56932;38.402;-96.176;2022-10-23T02:16:07;96151.74;;;24.10;30.53
69689;BME280;56932;38.402;-96.176;2022-10-23T02:18:33;96158.47;;;23.87;30.70
69689;BME280;56932;38.402;-96.176;2022-10-23T02:20:56;96156.55;;;23.98;30.96
69689;BME280;56932;38.402;-96.176;2022-10-23T02:23:28;96151.33;;;23.89;30.73
69689;BME280;56932;38.402;-96.176;2022-10-23T02:25:49;96148.53;;;23.76;31.19
69689;BME280;56932;38.402;-96.176;2022-10-23T02:28:15;96144.84;;;23.50;31.18
69689;BME280;56932;38.402;-96.176;2022-10-23T02:30:37;96146.49;;;23.74;31.26
69689;BME280;56932;38.402;-96.176;2022-10-23T02:33:02;96153.35;;;23.47;31.75
69689;BME280;56932;38.402;-96.176;2022-10-23T02:35:26;96150.53;;;25.02;29.68
69689;BME280;56932;38.402;-96.176;2022-10-23T02:37:53;96152.30;;;23.73;31.17
69689;BME280;56932;38.402;-96.176;2022-10-23T02:40:17;96148.08;;;23.27;31.35
69689;BME280;56932;38.402;-96.176;2022-10-23T02:42:46;96152.43;;;24.84;30.14
69689;BME280;56932;38.402;-96.176;2022-10-23T02:45:10;96151.19;;;24.14;31.19
69689;BME280;56932;38.402;-96.176;2022-10-23T02:47:41;96153.25;;;23.80;30.96
69689;BME280;56932;38.402;-96.176;2022-10-23T02:50:05;96156.21;;;23.05;32.09
69689;BME280;56932;38.402;-96.176;2022-10-23T02:52:28;96154.64;;;23.77;30.97
69689;BME280;56932;38.402;-96.176;2022-10-23T02:54:58;96160.26;;;23.25;31.62
69689;BME280;56932;38.402;-96.176;2022-10-23T02:57:20;96157.61;;;24.10;30.64
69689;BME280;56932;38.402;-96.176;2022-10-23T02:59:43;96161.21;;;23.33;31.55
69689;BME280;56932;38.402;-96.176;2022-10-23T03:02:09;96160.37;;;23.61;31.40
69689;BME280;56932;38.402;-96.176;2022-10-23T03:04:31;96159.85;;;23.99;30.72
69689;BME280;56932;38.402;-96.176;2022-10-23T03:06:56;96155.50;;;23.48;31.28
69689;BME280;56932;38.402;-96.176;2022-10-23T03:09:21;96157.41;;;22.58;32.29
69689;BME280;56932;38.402;-96.176;2022-10-23T03:11:46;96155.26;;;23.20;32.15
69689;BME280;56932;38.402;-96.176;2022-10-23T03:14:12;96156.29;;;23.91;30.98
69689;BME280;56932;38.402;-96.176;2022-10-23T03:16:37;96155.66;;;23.68;31.51
69689;BME280;56932;38.402;-96.176;2022-10-23T03:19:03;96153.87;;;23.67;30.98
69689;BME280;56932;38.402;-96.176;2022-10-23T03:21:28;96156.95;;;22.90;31.56
69689;BME280;56932;38.402;-96.176;2022-10-23T03:23:54;96154.51;;;22.80;32.32
69689;BME280;56932;38.402;-96.176;2022-10-23T03:26:19;96160.42;;;22.29;32.63
69689;BME280;56932;38.402;-96.176;2022-10-23T03:28:45;96156.73;;;23.48;31.21
69689;BME280;56932;38.402;-96.176;2022-10-23T03:31:10;96160.01;;;22.95;32.10
69689;BME280;56932;38.402;-96.176;2022-10-23T03:33:36;96162.09;;;22.34;32.48
69689;BME280;56932;38.402;-96.176;2022-10-23T03:36:01;96164.41;;;23.58;31.56
69689;BME280;56932;38.402;-96.176;2022-10-23T03:38:27;96163.53;;;22.88;31.74
69689;BME280;56932;38.402;-96.176;2022-10-23T03:40:52;96169.41;;;23.18;31.74
69689;BME280;56932;38.402;-96.176;2022-10-23T03:43:18;96163.94;;;23.38;31.28
69689;BME280;56932;38.402;-96.176;2022-10-23T03:45:43;96162.93;;;22.98;31.93
69689;BME280;56932;38.402;-96.176;2022-10-23T03:48:09;96162.63;;;22.82;32.21
69689;BME280;56932;38.402;-96.176;2022-10-23T03:50:35;96158.62;;;23.16;31.76
69689;BME280;56932;38.402;-96.176;2022-10-23T03:53:00;96154.88;;;23.31;31.86
69689;BME280;56932;38.402;-96.176;2022-10-23T03:55:25;96158.65;;;23.18;31.43
69689;BME280;56932;38.402;-96.176;2022-10-23T03:57:51;96153.32;;;23.81;31.01
69689;BME280;56932;38.402;-96.176;2022-10-23T04:00:17;96158.84;;;22.87;31.83
69689;BME280;56932;38.402;-96.176;2022-10-23T04:02:42;96157.62;;;23.21;31.42
69689;BME280;56932;38.402;-96.176;2022-10-23T04:05:07;96158.82;;;23.51;31.03
69689;BME280;56932;38.402;-96.176;2022-10-23T04:07:33;96155.46;;;22.94;31.68
69689;BME280;56932;38.402;-96.176;2022-10-23T04:09:58;96157.19;;;22.97;32.21
69689;BME280;56932;38.402;-96.176;2022-10-23T04:12:24;96161.65;;;22.07;32.81
69689;BME280;56932;38.402;-96.176;2022-10-23T04:14:49;96159.59;;;23.48;31.63
69689;BME280;56932;38.402;-96.176;2022-10-23T04:17:15;96166.90;;;23.29;31.26
69689;BME280;56932;38.402;-96.176;2022-10-23T04:19:40;96161.47;;;24.46;30.46
69689;BME280;56932;38.402;-96.176;2022-10-23T04:22:05;96155.69;;;23.57;31.51
69689;BME280;56932;38.402;-96.176;2022-10-23T04:24:31;96161.91;;;23.62;31.42
69689;BME280;56932;38.402;-96.176;2022-10-23T04:26:56;96159.12;;;23.58;31.18
69689;BME280;56932;38.402;-96.176;2022-10-23T04:29:22;96161.72;;;22.62;31.68
69689;BME280;56932;38.402;-96.176;2022-10-23T04:31:47;96163.64;;;23.02;32.41
69689;BME280;56932;38.402;-96.176;2022-10-23T04:34:13;96158.28;;;22.65;32.57
69689;BME280;56932;38.402;-96.176;2022-10-23T04:36:38;96152.34;;;22.70;32.58
69689;BME280;56932;38.402;-96.176;2022-10-23T04:39:04;96150.05;;;22.75;32.54
69689;BME280;56932;38.402;-96.176;2022-10-23T04:41:29;96146.56;;;22.91;32.11
69689;BME280;56932;38.402;-96.176;2022-10-23T04:43:54;96146.19;;;22.63;32.30
69689;BME280;56932;38.402;-96.176;2022-10-23T04:46:20;96147.75;;;22.25;32.41
69689;BME280;56932;38.402;-96.176;2022-10-23T04:48:45;96147.90;;;22.57;32.34
69689;BME280;56932;38.402;-96.176;2022-10-23T04:51:11;96148.14;;;22.82;32.34
69689;BME280;56932;38.402;-96.176;2022-10-23T04:53:36;96149.25;;;23.62;31.46
69689;BME280;56932;38.402;-96.176;2022-10-23T04:56:02;96146.90;;;22.35;32.89
69689;BME280;56932;38.402;-96.176;2022-10-23T04:58:28;96137.73;;;22.81;32.38
69689;BME280;56932;38.402;-96.176;2022-10-23T05:00:53;96143.24;;;23.94;30.77
69689;BME280;56932;38.402;-96.176;2022-10-23T05:03:20;96145.87;;;22.85;31.84
69689;BME280;56932;38.402;-96.176;2022-10-23T05:05:44;96144.44;;;24.50;30.37
69689;BME280;56932;38.402;-96.176;2022-10-23T05:08:10;96145.96;;;23.66;31.35
69689;BME280;56932;38.402;-96.176;2022-10-23T05:10:35;96141.12;;;22.93;31.72
69689;BME280;56932;38.402;-96.176;2022-10-23T05:13:01;96144.06;;;23.37;31.79
69689;BME280;56932;38.402;-96.176;2022-10-23T05:15:26;96143.23;;;22.72;31.96
69689;BME280;56932;38.402;-96.176;2022-10-23T05:17:54;96135.78;;;23.82;31.22
69689;BME280;56932;38.402;-96.176;2022-10-23T05:20:20;96149.72;;;23.31;31.30
69689;BME280;56932;38.402;-96.176;2022-10-23T05:22:42;96153.48;;;23.10;31.73
69689;BME280;56932;38.402;-96.176;2022-10-23T05:25:08;96148.07;;;23.51;31.33
69689;BME280;56932;38.402;-96.176;2022-10-23T05:27:33;96143.61;;;22.70;32.19
69689;BME280;56932;38.402;-96.176;2022-10-23T05:29:58;96144.16;;;23.05;32.13
69689;BME280;56932;38.402;-96.176;2022-10-23T05:32:24;96141.96;;;22.46;31.97
69689;BME280;56932;38.402;-96.176;2022-10-23T05:34:49;96142.64;;;22.98;32.20
69689;BME280;56932;38.402;-96.176;2022-10-23T05:37:16;96140.26;;;23.36;31.46
69689;BME280;56932;38.402;-96.176;2022-10-23T05:39:40;96142.01;;;23.37;31.19
69689;BME280;56932;38.402;-96.176;2022-10-23T05:42:05;96139.24;;;23.66;31.36
69689;BME280;56932;38.402;-96.176;2022-10-23T05:44:31;96137.08;;;23.49;30.99
69689;BME280;56932;38.402;-96.176;2022-10-23T05:46:56;96133.37;;;23.27;31.73
69689;BME280;56932;38.402;-96.176;2022-10-23T05:49:23;96131.90;;;22.40;32.31
69689;BME280;56932;38.402;-96.176;2022-10-23T05:51:47;96136.07;;;22.58;32.19
69689;BME280;56932;38.402;-96.176;2022-10-23T05:54:13;96132.58;;;23.61;31.43
69689;BME280;56932;38.402;-96.176;2022-10-23T05:56:39;96128.11;;;23.42;31.06
69689;BME280;56932;38.402;-96.176;2022-10-23T05:59:04;96133.67;;;22.87;32.27
69689;BME280;56932;38.402;-96.176;2022-10-23T06:01:29;96128.12;;;23.21;31.34
69689;BME280;56932;38.402;-96.176;2022-10-23T06:03:54;96122.72;;;23.87;30.62
69689;BME280;56932;38.402;-96.176;2022-10-23T06:06:20;96120.58;;;22.88;31.35
69689;BME280;56932;38.402;-96.176;2022-10-23T06:08:45;96131.82;;;23.10;32.01
69689;BME280;56932;38.402;-96.176;2022-10-23T06:11:13;96128.13;;;23.23;31.52
69689;BME280;56932;38.402;-96.176;2022-10-23T06:13:37;96122.25;;;22.53;32.59
69689;BME280;56932;38.402;-96.176;2022-10-23T06:16:07;96124.82;;;22.79;32.34
69689;BME280;56932;38.402;-96.176;2022-10-23T06:18:27;96122.73;;;22.51;32.12
69689;BME280;56932;38.402;-96.176;2022-10-23T06:20:52;96120.14;;;22.66;32.47
69689;BME280;56932;38.402;-96.176;2022-10-23T06:23:18;96118.11;;;23.82;30.58
69689;BME280;56932;38.402;-96.176;2022-10-23T06:25:49;96112.39;;;23.41;31.30
69689;BME280;56932;38.402;-96.176;2022-10-23T06:28:09;96112.58;;;23.78;31.00
69689;BME280;56932;38.402;-96.176;2022-10-23T06:30:37;96107.95;;;23.52;30.77
69689;BME280;56932;38.402;-96.176;2022-10-23T06:33:00;96105.11;;;23.60;31.25
69689;BME280;56932;38.402;-96.176;2022-10-23T06:35:25;96112.01;;;23.34;31.10
69689;BME280;56932;38.402;-96.176;2022-10-23T06:37:51;96109.95;;;23.88;30.41
69689;BME280;56932;38.402;-96.176;2022-10-23T06:40:17;96108.84;;;23.74;30.09
69689;BME280;56932;38.402;-96.176;2022-10-23T06:42:42;96101.13;;;23.18;31.24
69689;BME280;56932;38.402;-96.176;2022-10-23T06:45:08;96104.60;;;23.19;31.47
69689;BME280;56932;38.402;-96.176;2022-10-23T06:47:32;96100.23;;;24.46;29.81
69689;BME280;56932;38.402;-96.176;2022-10-23T06:49:58;96106.94;;;23.79;30.82
69689;BME280;56932;38.402;-96.176;2022-10-23T06:52:23;96099.05;;;23.01;31.07
69689;BME280;56932;38.402;-96.176;2022-10-23T06:54:49;96105.16;;;22.87;31.84
69689;BME280;56932;38.402;-96.176;2022-10-23T06:57:15;96102.80;;;23.25;31.68
69689;BME280;56932;38.402;-96.176;2022-10-23T06:59:39;96101.14;;;22.84;31.95
69689;BME280;56932;38.402;-96.176;2022-10-23T07:02:05;96098.70;;;23.25;31.46
69689;BME280;56932;38.402;-96.176;2022-10-23T07:04:30;96098.62;;;23.28;31.70
69689;BME280;56932;38.402;-96.176;2022-10-23T07:06:56;96092.57;;;23.26;31.71
69689;BME280;56932;38.402;-96.176;2022-10-23T07:09:21;96087.96;;;21.87;32.83
69689;BME280;56932;38.402;-96.176;2022-10-23T07:11:47;96096.89;;;22.92;31.82
69689;BME280;56932;38.402;-96.176;2022-10-23T07:14:13;96084.42;;;24.07;30.48
69689;BME280;56932;38.402;-96.176;2022-10-23T07:16:38;96080.92;;;22.86;31.64
69689;BME280;56932;38.402;-96.176;2022-10-23T07:19:03;96080.47;;;22.57;32.50
69689;BME280;56932;38.402;-96.176;2022-10-23T07:21:30;96076.19;;;23.00;31.72
69689;BME280;56932;38.402;-96.176;2022-10-23T07:23:54;96074.10;;;23.43;31.47
69689;BME280;56932;38.402;-96.176;2022-10-23T07:26:20;96075.62;;;22.72;31.42
69689;BME280;56932;38.402;-96.176;2022-10-23T07:28:46;96074.77;;;22.31;33.10
69689;BME280;56932;38.402;-96.176;2022-10-23T07:31:11;96081.23;;;23.68;31.11
69689;BME280;56932;38.402;-96.176;2022-10-23T07:33:36;96086.30;;;23.62;30.68
69689;BME280;56932;38.402;-96.176;2022-10-23T07:36:03;96085.55;;;22.81;32.11
69689;BME280;56932;38.402;-96.176;2022-10-23T07:38:27;96082.10;;;22.94;31.48
69689;BME280;56932;38.402;-96.176;2022-10-23T07:40:52;96084.09;;;23.69;31.14
69689;BME280;56932;38.402;-96.176;2022-10-23T07:43:18;96087.46;;;23.81;30.48
69689;BME280;56932;38.402;-96.176;2022-10-23T07:45:46;96087.55;;;22.90;32.02
69689;BME280;56932;38.402;-96.176;2022-10-23T07:48:08;96078.66;;;22.88;32.01
69689;BME280;56932;38.402;-96.176;2022-10-23T07:50:35;96079.60;;;22.99;31.66
69689;BME280;56932;38.402;-96.176;2022-10-23T07:52:59;96081.74;;;23.58;31.32
69689;BME280;56932;38.402;-96.176;2022-10-23T07:55:24;96082.31;;;22.38;32.12
69689;BME280;56932;38.402;-96.176;2022-10-23T07:57:50;96082.95;;;24.16;30.06
69689;BME280;56932;38.402;-96.176;2022-10-23T08:00:16;96084.28;;;23.18;30.78
69689;BME280;56932;38.402;-96.176;2022-10-23T08:02:41;96069.20;;;22.89;31.52
69689;BME280;56932;38.402;-96.176;2022-10-23T08:05:07;96068.34;;;23.46;31.10
69689;BME280;56932;38.402;-96.176;2022-10-23T08:07:32;96077.57;;;23.14;31.19
69689;BME280;56932;38.402;-96.176;2022-10-23T08:09:57;96070.36;;;22.91;31.66
69689;BME280;56932;38.402;-96.176;2022-10-23T08:12:23;96073.08;;;21.97;31.99
69689;BME280;56932;38.402;-96.176;2022-10-23T08:14:48;96065.41;;;22.81;31.89
69689;BME280;56932;38.402;-96.176;2022-10-23T08:17:14;96070.42;;;22.95;31.94
69689;BME280;56932;38.402;-96.176;2022-10-23T08:19:39;96085.41;;;23.84;30.38
69689;BME280;56932;38.402;-96.176;2022-10-23T08:22:05;96080.87;;;23.48;30.98
69689;BME280;56932;38.402;-96.176;2022-10-23T08:24:30;96071.02;;;23.37;30.85
69689;BME280;56932;38.402;-96.176;2022-10-23T08:26:55;96071.12;;;22.93;31.66
69689;BME280;56932;38.402;-96.176;2022-10-23T08:29:21;96066.90;;;22.82;30.94
69689;BME280;56932;38.402;-96.176;2022-10-23T08:31:46;96069.90;;;23.45;31.22
69689;BME280;56932;38.402;-96.176;2022-10-23T08:34:12;96076.01;;;23.04;31.69
69689;BME280;56932;38.402;-96.176;2022-10-23T08:36:38;96060.15;;;22.87;31.64
69689;BME280;56932;38.402;-96.176;2022-10-23T08:39:03;96064.08;;;23.29;31.43
69689;BME280;56932;38.402;-96.176;2022-10-23T08:41:31;96064.32;;;23.50;30.66
69689;BME280;56932;38.402;-96.176;2022-10-23T08:43:59;96063.56;;;23.26;30.94
69689;BME280;56932;38.402;-96.176;2022-10-23T08:46:24;96066.97;;;22.45;31.84
69689;BME280;56932;38.402;-96.176;2022-10-23T08:48:48;96054.76;;;23.59;30.83
69689;BME280;56932;38.402;-96.176;2022-10-23T08:51:17;96060.74;;;23.38;31.35
69689;BME280;56932;38.402;-96.176;2022-10-23T08:53:40;96055.10;;;23.42;30.79
69689;BME280;56932;38.402;-96.176;2022-10-23T08:56:03;96058.05;;;22.93;31.83
69689;BME280;56932;38.402;-96.176;2022-10-23T08:58:34;96051.15;;;23.12;31.38
69689;BME280;56932;38.402;-96.176;2022-10-23T09:00:52;96054.70;;;22.31;32.55
69689;BME280;56932;38.402;-96.176;2022-10-23T09:03:18;96058.88;;;22.94;30.90
69689;BME280;56932;38.402;-96.176;2022-10-23T09:05:53;96054.73;;;23.00;31.46
69689;BME280;56932;38.402;-96.176;2022-10-23T09:08:20;96063.64;;;23.78;30.56
69689;BME280;56932;38.402;-96.176;2022-10-23T09:10:48;96057.40;;;22.90;31.29
69689;BME280;56932;38.402;-96.176;2022-10-23T09:13:10;96059.15;;;23.19;30.94
69689;BME280;56932;38.402;-96.176;2022-10-23T09:15:28;96059.55;;;23.49;30.29
69689;BME280;56932;38.402;-96.176;2022-10-23T09:17:56;96056.59;;;24.34;29.66
69689;BME280;56932;38.402;-96.176;2022-10-23T09:20:20;96054.47;;;23.06;31.26
69689;BME280;56932;38.402;-96.176;2022-10-23T09:22:41;96056.18;;;22.40;32.67
69689;BME280;56932;38.402;-96.176;2022-10-23T09:25:09;96056.53;;;23.14;31.23
69689;BME280;56932;38.402;-96.176;2022-10-23T09:27:31;96056.72;;;23.00;31.38
69689;BME280;56932;38.402;-96.176;2022-10-23T09:29:57;96053.50;;;23.41;31.19
69689;BME280;56932;38.402;-96.176;2022-10-23T09:34:53;96042.99;;;22.70;31.98
69689;BME280;56932;38.402;-96.176;2022-10-23T09:37:23;96058.56;;;23.28;31.03
69689;BME280;56932;38.402;-96.176;2022-10-23T09:39:39;96057.45;;;22.82;31.36
69689;BME280;56932;38.402;-96.176;2022-10-23T09:42:13;96055.67;;;23.53;30.80
69689;BME280;56932;38.402;-96.176;2022-10-23T09:44:31;96066.92;;;24.02;29.97
69689;BME280;56932;38.402;-96.176;2022-10-23T09:46:59;96070.01;;;23.94;30.30
69689;BME280;56932;38.402;-96.176;2022-10-23T09:49:22;96060.40;;;21.55;32.80
69689;BME280;56932;38.402;-96.176;2022-10-23T09:51:53;96056.86;;;22.87;31.80
69689;BME280;56932;38.402;-96.176;2022-10-23T09:54:14;96056.01;;;22.92;31.54
69689;BME280;56932;38.402;-96.176;2022-10-23T09:56:40;96056.71;;;22.83;31.58
69689;BME280;56932;38.402;-96.176;2022-10-23T09:59:05;96060.46;;;22.78;31.92
69689;BME280;56932;38.402;-96.176;2022-10-23T10:01:30;96067.41;;;23.32;31.06
69689;BME280;56932;38.402;-96.176;2022-10-23T10:03:53;96065.99;;;23.08;31.02
69689;BME280;56932;38.402;-96.176;2022-10-23T10:06:22;96065.40;;;23.90;29.78
69689;BME280;56932;38.402;-96.176;2022-10-23T10:08:49;96060.33;;;23.52;30.98
69689;BME280;56932;38.402;-96.176;2022-10-23T10:11:14;96063.58;;;23.31;31.24
69689;BME280;56932;38.402;-96.176;2022-10-23T10:16:04;96051.94;;;23.10;31.51
69689;BME280;56932;38.402;-96.176;2022-10-23T10:18:31;96053.70;;;22.68;31.47
69689;BME280;56932;38.402;-96.176;2022-10-23T10:20:59;96061.98;;;23.34;31.21
69689;BME280;56932;38.402;-96.176;2022-10-23T10:23:25;96065.68;;;22.76;31.06
69689;BME280;56932;38.402;-96.176;2022-10-23T10:25:48;96066.27;;;22.99;31.01
69689;BME280;56932;38.402;-96.176;2022-10-23T10:28:20;96072.02;;;23.63;30.87
69689;BME280;56932;38.402;-96.176;2022-10-23T10:30:39;96069.08;;;23.22;30.72
69689;BME280;56932;38.402;-96.176;2022-10-23T10:33:03;96070.58;;;23.74;30.21
69689;BME280;56932;38.402;-96.176;2022-10-23T10:35:33;96073.70;;;22.45;31.64
69689;BME280;56932;38.402;-96.176;2022-10-23T10:40:21;96068.80;;;23.23;30.72
69689;BME280;56932;38.402;-96.176;2022-10-23T10:42:49;96074.07;;;22.99;31.51
69689;BME280;56932;38.402;-96.176;2022-10-23T10:45:17;96066.51;;;22.44;32.18
69689;BME280;56932;38.402;-96.176;2022-10-23T10:47:35;96076.54;;;23.19;31.29
69689;BME280;56932;38.402;-96.176;2022-10-23T10:50:05;96079.45;;;23.78;30.15
69689;BME280;56932;38.402;-96.176;2022-10-23T10:52:24;96074.90;;;22.38;31.06
69689;BME280;56932;38.402;-96.176;2022-10-23T10:54:54;96079.40;;;23.82;30.62
69689;BME280;56932;38.402;-96.176;2022-10-23T10:57:22;96080.28;;;22.75;31.80
69689;BME280;56932;38.402;-96.176;2022-10-23T10:59:39;96088.34;;;23.13;31.42
69689;BME280;56932;38.402;-96.176;2022-10-23T11:02:14;96087.41;;;22.79;31.77
69689;BME280;56932;38.402;-96.176;2022-10-23T11:04:34;96080.36;;;23.59;30.59
69689;BME280;56932;38.402;-96.176;2022-10-23T11:06:57;96084.37;;;23.45;30.83
69689;BME280;56932;38.402;-96.176;2022-10-23T11:09:24;96085.08;;;22.78;31.34
69689;BME280;56932;38.402;-96.176;2022-10-23T11:11:45;96082.24;;;23.55;30.68
69689;BME280;56932;38.402;-96.176;2022-10-23T11:14:15;96094.64;;;23.77;30.71
69689;BME280;56932;38.402;-96.176;2022-10-23T11:16:38;96093.34;;;22.83;31.58
69689;BME280;56932;38.402;-96.176;2022-10-23T11:19:06;96101.96;;;23.50;31.08
69689;BME280;56932;38.402;-96.176;2022-10-23T11:21:32;96094.47;;;22.67;31.41
69689;BME280;56932;38.402;-96.176;2022-10-23T11:26:27;96098.29;;;23.12;30.96
69689;BME280;56932;38.402;-96.176;2022-10-23T11:28:54;96095.37;;;23.97;30.20
69689;BME280;56932;38.402;-96.176;2022-10-23T11:31:18;96098.94;;;23.94;29.93
69689;BME280;56932;38.402;-96.176;2022-10-23T11:36:10;96094.96;;;24.52;29.54
69689;BME280;56932;38.402;-96.176;2022-10-23T11:38:27;96093.47;;;23.65;30.20
69689;BME280;56932;38.402;-96.176;2022-10-23T11:40:53;96088.45;;;23.03;30.93
69689;BME280;56932;38.402;-96.176;2022-10-23T11:45:42;96092.41;;;23.69;30.22
69689;BME280;56932;38.402;-96.176;2022-10-23T11:53:02;96094.84;;;23.12;31.14
69689;BME280;56932;38.402;-96.176;2022-10-23T11:55:26;96114.09;;;23.12;30.50
69689;BME280;56932;38.402;-96.176;2022-10-23T12:00:21;96119.30;;;23.62;30.24
69689;BME280;56932;38.402;-96.176;2022-10-23T12:02:42;96115.35;;;23.52;30.62
69689;BME280;56932;38.402;-96.176;2022-10-23T12:05:07;96115.30;;;23.97;30.43
69689;BME280;56932;38.402;-96.176;2022-10-23T12:07:33;96113.12;;;22.73;31.33
69689;BME280;56932;38.402;-96.176;2022-10-23T12:09:59;96116.66;;;24.01;30.39
69689;BME280;56932;38.402;-96.176;2022-10-23T12:12:27;96122.83;;;23.08;30.64
69689;BME280;56932;38.402;-96.176;2022-10-23T12:14:48;96117.64;;;22.26;31.86
69689;BME280;56932;38.402;-96.176;2022-10-23T12:19:46;96115.65;;;23.51;30.90
69689;BME280;56932;38.402;-96.176;2022-10-23T12:22:07;96119.69;;;23.76;30.39
69689;BME280;56932;38.402;-96.176;2022-10-23T12:24:42;96115.38;;;23.20;30.78
69689;BME280;56932;38.402;-96.176;2022-10-23T12:27:02;96119.33;;;22.83;31.75
69689;BME280;56932;38.402;-96.176;2022-10-23T12:29:31;96124.84;;;22.45;31.42
69689;BME280;56932;38.402;-96.176;2022-10-23T12:31:51;96116.83;;;23.74;30.20
69689;BME280;56932;38.402;-96.176;2022-10-23T12:34:22;96114.58;;;23.97;29.94
69689;BME280;56932;38.402;-96.176;2022-10-23T12:36:44;96118.89;;;24.74;29.60
69689;BME280;56932;38.402;-96.176;2022-10-23T12:39:02;96123.84;;;24.19;30.14
69689;BME280;56932;38.402;-96.176;2022-10-23T12:41:29;96123.67;;;23.63;30.23
69689;BME280;56932;38.402;-96.176;2022-10-23T12:43:55;96136.46;;;23.72;30.13
69689;BME280;56932;38.402;-96.176;2022-10-23T12:46:29;96126.53;;;23.90;29.41
69689;BME280;56932;38.402;-96.176;2022-10-23T12:48:47;96132.29;;;22.55;31.46
69689;BME280;56932;38.402;-96.176;2022-10-23T12:51:15;96127.88;;;23.92;30.16
69689;BME280;56932;38.402;-96.176;2022-10-23T12:53:35;96129.21;;;22.64;31.03
69689;BME280;56932;38.402;-96.176;2022-10-23T12:56:03;96131.35;;;23.51;30.91